sensor_id;sensor_type;location;lat;lon;timestamp;P1;durP1;ratioP1;P2;durP2;ratioP2
22711;SDS011;11523;50.390;8.072;2024-03-22T00:01:53;21.58;;;18.27;;
22711;SDS011;11523;50.390;8.072;2024-03-22T00:04:20;21.48;;;17.25;;
22711;SDS011;11523;50.390;8.072;2024-03-22T00:06:46;22.20;;;18.17;;
22711;SDS011;11523;50.390;8.072;2024-03-22T00:09:13;23.50;;;17.58;;
22711;SDS011;11523;50.390;8.072;2024-03-22T00:11:39;22.20;;;18.55;;
22711;SDS011;11523;50.390;8.072;2024-03-22T00:14:05;22.63;;;19.83;;
22711;SDS011;11523;50.390;8.072;2024-03-22T00:16:32;24.02;;;20.02;;
22711;SDS011;11523;50.390;8.072;2024-03-22T00:18:57;24.75;;;19.88;;
22711;SDS011;11523;50.390;8.072;2024-03-22T00:21:23;27.98;;;19.67;;
22711;SDS011;11523;50.390;8.072;2024-03-22T00:23:49;26.30;;;19.30;;
22711;SDS011;11523;50.390;8.072;2024-03-22T00:26:15;23.52;;;19.00;;
22711;SDS011;11523;50.390;8.072;2024-03-22T00:28:41;22.33;;;19.25;;
22711;SDS011;11523;50.390;8.072;2024-03-22T00:31:08;22.20;;;19.70;;
22711;SDS011;11523;50.390;8.072;2024-03-22T00:33:34;25.63;;;19.58;;
22711;SDS011;11523;50.390;8.072;2024-03-22T00:36:00;22.05;;;19.48;;
22711;SDS011;11523;50.390;8.072;2024-03-22T00:38:26;22.35;;;18.38;;
22711;SDS011;11523;50.390;8.072;2024-03-22T00:40:52;23.52;;;20.17;;
22711;SDS011;11523;50.390;8.072;2024-03-22T00:43:19;23.63;;;20.42;;
22711;SDS011;11523;50.390;8.072;2024-03-22T00:45:45;24.65;;;21.48;;
22711;SDS011;11523;50.390;8.072;2024-03-22T00:48:11;25.00;;;20.90;;
22711;SDS011;11523;50.390;8.072;2024-03-22T00:50:36;24.17;;;19.98;;
22711;SDS011;11523;50.390;8.072;2024-03-22T00:53:02;25.38;;;20.42;;
22711;SDS011;11523;50.390;8.072;2024-03-22T00:55:30;25.02;;;21.10;;
22711;SDS011;11523;50.390;8.072;2024-03-22T00:57:56;21.52;;;19.23;;
22711;SDS011;11523;50.390;8.072;2024-03-22T01:00:22;23.42;;;20.23;;
22711;SDS011;11523;50.390;8.072;2024-03-22T01:02:49;25.85;;;20.58;;
22711;SDS011;11523;50.390;8.072;2024-03-22T01:05:22;22.80;;;19.65;;
22711;SDS011;11523;50.390;8.072;2024-03-22T01:07:48;23.58;;;19.55;;
22711;SDS011;11523;50.390;8.072;2024-03-22T01:10:14;26.00;;;20.02;;
22711;SDS011;11523;50.390;8.072;2024-03-22T01:12:40;23.30;;;20.80;;
22711;SDS011;11523;50.390;8.072;2024-03-22T01:15:06;26.50;;;20.38;;
22711;SDS011;11523;50.390;8.072;2024-03-22T01:17:32;26.80;;;21.08;;
22711;SDS011;11523;50.390;8.072;2024-03-22T01:19:58;23.45;;;19.33;;
22711;SDS011;11523;50.390;8.072;2024-03-22T01:22:24;22.45;;;19.95;;
22711;SDS011;11523;50.390;8.072;2024-03-22T01:24:50;28.20;;;20.58;;
22711;SDS011;11523;50.390;8.072;2024-03-22T01:27:16;25.02;;;20.52;;
22711;SDS011;11523;50.390;8.072;2024-03-22T01:29:42;23.92;;;19.48;;
22711;SDS011;11523;50.390;8.072;2024-03-22T01:32:08;23.05;;;20.35;;
22711;SDS011;11523;50.390;8.072;2024-03-22T01:34:34;24.77;;;20.15;;
22711;SDS011;11523;50.390;8.072;2024-03-22T01:37:00;25.58;;;19.85;;
22711;SDS011;11523;50.390;8.072;2024-03-22T01:39:26;24.85;;;20.52;;
22711;SDS011;11523;50.390;8.072;2024-03-22T01:41:52;25.98;;;19.70;;
22711;SDS011;11523;50.390;8.072;2024-03-22T01:44:18;24.45;;;20.95;;
22711;SDS011;11523;50.390;8.072;2024-03-22T01:46:44;23.58;;;20.33;;
22711;SDS011;11523;50.390;8.072;2024-03-22T01:49:14;25.92;;;20.05;;
22711;SDS011;11523;50.390;8.072;2024-03-22T01:51:41;24.50;;;20.02;;
22711;SDS011;11523;50.390;8.072;2024-03-22T01:54:08;23.92;;;19.13;;
22711;SDS011;11523;50.390;8.072;2024-03-22T01:56:37;22.35;;;18.63;;
22711;SDS011;11523;50.390;8.072;2024-03-22T01:59:07;25.73;;;19.60;;
22711;SDS011;11523;50.390;8.072;2024-03-22T02:01:33;26.85;;;20.08;;
22711;SDS011;11523;50.390;8.072;2024-03-22T02:04:00;24.02;;;19.98;;
22711;SDS011;11523;50.390;8.072;2024-03-22T02:06:32;26.27;;;20.05;;
22711;SDS011;11523;50.390;8.072;2024-03-22T02:08:58;24.15;;;19.05;;
22711;SDS011;11523;50.390;8.072;2024-03-22T02:11:25;24.83;;;20.67;;
22711;SDS011;11523;50.390;8.072;2024-03-22T02:13:51;22.73;;;18.60;;
22711;SDS011;11523;50.390;8.072;2024-03-22T02:16:17;23.85;;;20.08;;
22711;SDS011;11523;50.390;8.072;2024-03-22T02:18:43;25.00;;;19.77;;
22711;SDS011;11523;50.390;8.072;2024-03-22T02:21:12;23.00;;;20.02;;
22711;SDS011;11523;50.390;8.072;2024-03-22T02:23:38;27.67;;;20.63;;
22711;SDS011;11523;50.390;8.072;2024-03-22T02:26:04;25.88;;;20.25;;
22711;SDS011;11523;50.390;8.072;2024-03-22T02:28:31;24.25;;;19.90;;
22711;SDS011;11523;50.390;8.072;2024-03-22T02:30:57;23.35;;;20.02;;
22711;SDS011;11523;50.390;8.072;2024-03-22T02:33:23;25.00;;;18.58;;
22711;SDS011;11523;50.390;8.072;2024-03-22T02:35:49;24.25;;;18.60;;
22711;SDS011;11523;50.390;8.072;2024-03-22T02:38:15;25.77;;;18.77;;
22711;SDS011;11523;50.390;8.072;2024-03-22T02:40:44;21.15;;;17.33;;
22711;SDS011;11523;50.390;8.072;2024-03-22T02:43:11;21.95;;;17.27;;
22711;SDS011;11523;50.390;8.072;2024-03-22T02:45:37;26.35;;;17.75;;
22711;SDS011;11523;50.390;8.072;2024-03-22T02:48:03;22.75;;;17.48;;
22711;SDS011;11523;50.390;8.072;2024-03-22T02:50:33;23.30;;;17.33;;
22711;SDS011;11523;50.390;8.072;2024-03-22T02:52:59;26.80;;;18.33;;
22711;SDS011;11523;50.390;8.072;2024-03-22T02:55:25;19.60;;;17.48;;
22711;SDS011;11523;50.390;8.072;2024-03-22T02:57:51;24.02;;;18.10;;
22711;SDS011;11523;50.390;8.072;2024-03-22T03:00:17;24.27;;;17.77;;
22711;SDS011;11523;50.390;8.072;2024-03-22T03:02:43;22.67;;;17.75;;
22711;SDS011;11523;50.390;8.072;2024-03-22T03:05:09;24.45;;;18.38;;
22711;SDS011;11523;50.390;8.072;2024-03-22T03:07:35;23.50;;;17.90;;
22711;SDS011;11523;50.390;8.072;2024-03-22T03:10:01;26.00;;;18.38;;
22711;SDS011;11523;50.390;8.072;2024-03-22T03:12:27;22.83;;;18.42;;
22711;SDS011;11523;50.390;8.072;2024-03-22T03:14:53;22.23;;;18.45;;
22711;SDS011;11523;50.390;8.072;2024-03-22T03:17:19;25.75;;;17.95;;
22711;SDS011;11523;50.390;8.072;2024-03-22T03:19:45;25.25;;;20.00;;
22711;SDS011;11523;50.390;8.072;2024-03-22T03:22:11;23.35;;;18.77;;
22711;SDS011;11523;50.390;8.072;2024-03-22T03:24:37;25.45;;;20.48;;
22711;SDS011;11523;50.390;8.072;2024-03-22T03:27:03;24.73;;;20.58;;
22711;SDS011;11523;50.390;8.072;2024-03-22T03:29:29;23.63;;;20.20;;
22711;SDS011;11523;50.390;8.072;2024-03-22T03:31:55;24.13;;;19.98;;
22711;SDS011;11523;50.390;8.072;2024-03-22T03:34:21;24.83;;;19.35;;
22711;SDS011;11523;50.390;8.072;2024-03-22T03:36:47;29.45;;;20.27;;
22711;SDS011;11523;50.390;8.072;2024-03-22T03:39:13;25.20;;;19.70;;
22711;SDS011;11523;50.390;8.072;2024-03-22T03:41:39;23.48;;;19.80;;
22711;SDS011;11523;50.390;8.072;2024-03-22T03:44:05;25.15;;;19.73;;
22711;SDS011;11523;50.390;8.072;2024-03-22T03:46:31;23.88;;;19.52;;
22711;SDS011;11523;50.390;8.072;2024-03-22T03:48:57;26.20;;;18.95;;
22711;SDS011;11523;50.390;8.072;2024-03-22T03:51:23;26.40;;;19.75;;
22711;SDS011;11523;50.390;8.072;2024-03-22T03:53:49;22.90;;;19.33;;
22711;SDS011;11523;50.390;8.072;2024-03-22T03:56:14;24.38;;;19.65;;
22711;SDS011;11523;50.390;8.072;2024-03-22T03:58:40;24.80;;;19.27;;
22711;SDS011;11523;50.390;8.072;2024-03-22T04:01:07;25.40;;;18.55;;
22711;SDS011;11523;50.390;8.072;2024-03-22T04:03:39;22.95;;;18.73;;
22711;SDS011;11523;50.390;8.072;2024-03-22T04:06:05;21.65;;;17.50;;
22711;SDS011;11523;50.390;8.072;2024-03-22T04:08:31;23.25;;;18.60;;
22711;SDS011;11523;50.390;8.072;2024-03-22T04:10:57;22.95;;;18.70;;
22711;SDS011;11523;50.390;8.072;2024-03-22T04:13:23;24.00;;;18.98;;
22711;SDS011;11523;50.390;8.072;2024-03-22T04:15:49;23.13;;;19.02;;
22711;SDS011;11523;50.390;8.072;2024-03-22T04:18:15;21.40;;;18.67;;
22711;SDS011;11523;50.390;8.072;2024-03-22T04:20:41;24.20;;;19.92;;
22711;SDS011;11523;50.390;8.072;2024-03-22T04:23:08;22.13;;;19.35;;
22711;SDS011;11523;50.390;8.072;2024-03-22T04:25:34;23.58;;;19.48;;
22711;SDS011;11523;50.390;8.072;2024-03-22T04:28:00;21.98;;;19.25;;
22711;SDS011;11523;50.390;8.072;2024-03-22T04:30:33;23.35;;;19.13;;
22711;SDS011;11523;50.390;8.072;2024-03-22T04:32:59;22.55;;;18.83;;
22711;SDS011;11523;50.390;8.072;2024-03-22T04:35:25;23.55;;;19.08;;
22711;SDS011;11523;50.390;8.072;2024-03-22T04:37:51;26.83;;;18.90;;
22711;SDS011;11523;50.390;8.072;2024-03-22T04:40:17;24.50;;;19.67;;
22711;SDS011;11523;50.390;8.072;2024-03-22T04:42:43;25.90;;;20.88;;
22711;SDS011;11523;50.390;8.072;2024-03-22T04:45:09;26.83;;;19.70;;
22711;SDS011;11523;50.390;8.072;2024-03-22T04:47:34;28.00;;;21.77;;
22711;SDS011;11523;50.390;8.072;2024-03-22T04:50:02;26.23;;;20.27;;
22711;SDS011;11523;50.390;8.072;2024-03-22T04:52:35;27.20;;;21.35;;
22711;SDS011;11523;50.390;8.072;2024-03-22T04:55:01;25.70;;;21.27;;
22711;SDS011;11523;50.390;8.072;2024-03-22T04:57:27;28.42;;;21.70;;
22711;SDS011;11523;50.390;8.072;2024-03-22T04:59:53;27.88;;;21.27;;
22711;SDS011;11523;50.390;8.072;2024-03-22T05:02:19;28.20;;;21.55;;
22711;SDS011;11523;50.390;8.072;2024-03-22T05:04:45;27.15;;;20.80;;
22711;SDS011;11523;50.390;8.072;2024-03-22T05:07:10;26.63;;;21.65;;
22711;SDS011;11523;50.390;8.072;2024-03-22T05:09:36;28.88;;;22.02;;
22711;SDS011;11523;50.390;8.072;2024-03-22T05:12:02;25.75;;;21.05;;
22711;SDS011;11523;50.390;8.072;2024-03-22T05:14:29;31.40;;;22.05;;
22711;SDS011;11523;50.390;8.072;2024-03-22T05:16:55;28.17;;;21.35;;
22711;SDS011;11523;50.390;8.072;2024-03-22T05:19:21;27.55;;;21.85;;
22711;SDS011;11523;50.390;8.072;2024-03-22T05:21:47;28.88;;;21.42;;
22711;SDS011;11523;50.390;8.072;2024-03-22T05:24:13;28.67;;;21.70;;
22711;SDS011;11523;50.390;8.072;2024-03-22T05:26:39;26.80;;;21.25;;
22711;SDS011;11523;50.390;8.072;2024-03-22T05:29:05;29.85;;;21.65;;
22711;SDS011;11523;50.390;8.072;2024-03-22T05:31:31;30.75;;;22.17;;
22711;SDS011;11523;50.390;8.072;2024-03-22T05:33:57;30.60;;;21.95;;
22711;SDS011;11523;50.390;8.072;2024-03-22T05:36:22;28.38;;;21.92;;
22711;SDS011;11523;50.390;8.072;2024-03-22T05:38:48;27.67;;;20.98;;
22711;SDS011;11523;50.390;8.072;2024-03-22T05:41:14;26.45;;;21.65;;
22711;SDS011;11523;50.390;8.072;2024-03-22T05:43:40;25.98;;;21.05;;
22711;SDS011;11523;50.390;8.072;2024-03-22T05:46:06;26.15;;;21.80;;
22711;SDS011;11523;50.390;8.072;2024-03-22T05:48:32;27.65;;;21.15;;
22711;SDS011;11523;50.390;8.072;2024-03-22T05:50:58;26.10;;;20.70;;
22711;SDS011;11523;50.390;8.072;2024-03-22T05:53:24;30.13;;;22.75;;
22711;SDS011;11523;50.390;8.072;2024-03-22T05:55:50;29.67;;;22.70;;
22711;SDS011;11523;50.390;8.072;2024-03-22T05:58:16;30.00;;;23.15;;
22711;SDS011;11523;50.390;8.072;2024-03-22T06:00:42;31.65;;;24.00;;
22711;SDS011;11523;50.390;8.072;2024-03-22T06:03:08;35.47;;;23.65;;
22711;SDS011;11523;50.390;8.072;2024-03-22T06:05:34;29.77;;;22.63;;
22711;SDS011;11523;50.390;8.072;2024-03-22T06:08:00;31.65;;;23.25;;
22711;SDS011;11523;50.390;8.072;2024-03-22T06:10:26;29.45;;;22.85;;
22711;SDS011;11523;50.390;8.072;2024-03-22T06:12:52;29.95;;;22.80;;
22711;SDS011;11523;50.390;8.072;2024-03-22T06:15:18;29.92;;;23.35;;
22711;SDS011;11523;50.390;8.072;2024-03-22T06:17:46;31.75;;;23.15;;
22711;SDS011;11523;50.390;8.072;2024-03-22T06:20:13;29.55;;;22.38;;
22711;SDS011;11523;50.390;8.072;2024-03-22T06:22:39;32.42;;;24.65;;
22711;SDS011;11523;50.390;8.072;2024-03-22T06:25:05;31.58;;;22.95;;
22711;SDS011;11523;50.390;8.072;2024-03-22T06:27:31;33.20;;;24.02;;
22711;SDS011;11523;50.390;8.072;2024-03-22T06:29:56;32.67;;;23.92;;
22711;SDS011;11523;50.390;8.072;2024-03-22T06:32:22;34.47;;;23.55;;
22711;SDS011;11523;50.390;8.072;2024-03-22T06:34:48;32.55;;;24.02;;
22711;SDS011;11523;50.390;8.072;2024-03-22T06:37:14;33.20;;;23.58;;
22711;SDS011;11523;50.390;8.072;2024-03-22T06:39:40;30.00;;;23.63;;
22711;SDS011;11523;50.390;8.072;2024-03-22T06:42:06;30.23;;;22.65;;
22711;SDS011;11523;50.390;8.072;2024-03-22T06:44:32;30.60;;;22.55;;
22711;SDS011;11523;50.390;8.072;2024-03-22T06:46:58;33.17;;;23.35;;
22711;SDS011;11523;50.390;8.072;2024-03-22T06:49:24;32.92;;;23.08;;
22711;SDS011;11523;50.390;8.072;2024-03-22T06:51:50;28.25;;;22.15;;
22711;SDS011;11523;50.390;8.072;2024-03-22T06:54:16;30.23;;;23.02;;
22711;SDS011;11523;50.390;8.072;2024-03-22T06:56:42;32.72;;;23.00;;
22711;SDS011;11523;50.390;8.072;2024-03-22T06:59:08;28.38;;;21.63;;
22711;SDS011;11523;50.390;8.072;2024-03-22T07:01:34;31.70;;;23.77;;
22711;SDS011;11523;50.390;8.072;2024-03-22T07:04:00;31.73;;;22.95;;
22711;SDS011;11523;50.390;8.072;2024-03-22T07:06:25;30.63;;;23.83;;
22711;SDS011;11523;50.390;8.072;2024-03-22T07:08:51;31.40;;;23.45;;
22711;SDS011;11523;50.390;8.072;2024-03-22T07:11:17;30.33;;;23.13;;
22711;SDS011;11523;50.390;8.072;2024-03-22T07:13:43;30.27;;;22.77;;
22711;SDS011;11523;50.390;8.072;2024-03-22T07:16:09;34.90;;;24.08;;
22711;SDS011;11523;50.390;8.072;2024-03-22T07:18:35;31.05;;;24.25;;
22711;SDS011;11523;50.390;8.072;2024-03-22T07:21:01;33.22;;;23.20;;
22711;SDS011;11523;50.390;8.072;2024-03-22T07:23:28;33.55;;;24.77;;
22711;SDS011;11523;50.390;8.072;2024-03-22T07:25:54;31.80;;;24.25;;
22711;SDS011;11523;50.390;8.072;2024-03-22T07:28:20;35.97;;;23.30;;
22711;SDS011;11523;50.390;8.072;2024-03-22T07:30:46;33.13;;;24.30;;
22711;SDS011;11523;50.390;8.072;2024-03-22T07:33:12;30.70;;;23.27;;
22711;SDS011;11523;50.390;8.072;2024-03-22T07:35:41;33.38;;;23.85;;
22711;SDS011;11523;50.390;8.072;2024-03-22T07:38:07;30.98;;;24.17;;
22711;SDS011;11523;50.390;8.072;2024-03-22T07:40:33;30.20;;;24.30;;
22711;SDS011;11523;50.390;8.072;2024-03-22T07:42:59;31.65;;;24.27;;
22711;SDS011;11523;50.390;8.072;2024-03-22T07:45:30;32.75;;;23.98;;
22711;SDS011;11523;50.390;8.072;2024-03-22T07:47:56;29.80;;;24.25;;
22711;SDS011;11523;50.390;8.072;2024-03-22T07:50:22;32.05;;;24.35;;
22711;SDS011;11523;50.390;8.072;2024-03-22T07:52:48;31.80;;;24.58;;
22711;SDS011;11523;50.390;8.072;2024-03-22T07:55:15;34.35;;;24.63;;
22711;SDS011;11523;50.390;8.072;2024-03-22T07:57:41;32.00;;;24.90;;
22711;SDS011;11523;50.390;8.072;2024-03-22T08:00:07;32.22;;;24.90;;
22711;SDS011;11523;50.390;8.072;2024-03-22T08:02:33;34.50;;;25.38;;
22711;SDS011;11523;50.390;8.072;2024-03-22T08:04:59;32.80;;;25.00;;
22711;SDS011;11523;50.390;8.072;2024-03-22T08:07:26;39.47;;;25.60;;
22711;SDS011;11523;50.390;8.072;2024-03-22T08:09:52;32.70;;;25.48;;
22711;SDS011;11523;50.390;8.072;2024-03-22T08:12:18;30.85;;;23.08;;
22711;SDS011;11523;50.390;8.072;2024-03-22T08:14:44;29.63;;;20.77;;
22711;SDS011;11523;50.390;8.072;2024-03-22T08:17:10;31.80;;;21.38;;
22711;SDS011;11523;50.390;8.072;2024-03-22T08:19:36;27.48;;;19.95;;
22711;SDS011;11523;50.390;8.072;2024-03-22T08:22:03;26.67;;;18.60;;
22711;SDS011;11523;50.390;8.072;2024-03-22T08:24:29;28.77;;;19.10;;
22711;SDS011;11523;50.390;8.072;2024-03-22T08:26:55;28.35;;;20.13;;
22711;SDS011;11523;50.390;8.072;2024-03-22T08:29:21;28.55;;;20.08;;
22711;SDS011;11523;50.390;8.072;2024-03-22T08:31:47;28.92;;;22.33;;
22711;SDS011;11523;50.390;8.072;2024-03-22T08:34:13;30.35;;;23.40;;
22711;SDS011;11523;50.390;8.072;2024-03-22T08:36:39;28.80;;;23.25;;
22711;SDS011;11523;50.390;8.072;2024-03-22T08:39:05;30.92;;;22.38;;
22711;SDS011;11523;50.390;8.072;2024-03-22T08:41:34;30.88;;;22.10;;
22711;SDS011;11523;50.390;8.072;2024-03-22T08:44:00;30.92;;;22.95;;
22711;SDS011;11523;50.390;8.072;2024-03-22T08:46:27;30.88;;;23.13;;
22711;SDS011;11523;50.390;8.072;2024-03-22T08:48:53;32.58;;;23.85;;
22711;SDS011;11523;50.390;8.072;2024-03-22T08:51:19;29.67;;;22.08;;
22711;SDS011;11523;50.390;8.072;2024-03-22T08:53:45;30.48;;;22.30;;
22711;SDS011;11523;50.390;8.072;2024-03-22T08:56:11;27.63;;;20.95;;
22711;SDS011;11523;50.390;8.072;2024-03-22T08:58:37;25.88;;;21.35;;
22711;SDS011;11523;50.390;8.072;2024-03-22T09:01:03;27.02;;;20.70;;
22711;SDS011;11523;50.390;8.072;2024-03-22T09:03:29;25.17;;;19.45;;
22711;SDS011;11523;50.390;8.072;2024-03-22T09:05:55;27.88;;;17.98;;
22711;SDS011;11523;50.390;8.072;2024-03-22T09:08:21;23.63;;;19.10;;
22711;SDS011;11523;50.390;8.072;2024-03-22T09:10:48;26.98;;;19.92;;
22711;SDS011;11523;50.390;8.072;2024-03-22T09:13:14;25.15;;;19.33;;
22711;SDS011;11523;50.390;8.072;2024-03-22T09:15:40;21.58;;;16.70;;
22711;SDS011;11523;50.390;8.072;2024-03-22T09:18:06;14.20;;;11.43;;
22711;SDS011;11523;50.390;8.072;2024-03-22T09:20:32;21.50;;;12.75;;
22711;SDS011;11523;50.390;8.072;2024-03-22T09:22:58;16.88;;;13.00;;
22711;SDS011;11523;50.390;8.072;2024-03-22T09:25:24;15.63;;;10.85;;
22711;SDS011;11523;50.390;8.072;2024-03-22T09:27:50;17.77;;;11.40;;
22711;SDS011;11523;50.390;8.072;2024-03-22T09:30:15;16.40;;;12.18;;
22711;SDS011;11523;50.390;8.072;2024-03-22T09:32:41;14.27;;;11.20;;
22711;SDS011;11523;50.390;8.072;2024-03-22T09:35:08;18.25;;;10.52;;
22711;SDS011;11523;50.390;8.072;2024-03-22T09:37:34;15.73;;;10.38;;
22711;SDS011;11523;50.390;8.072;2024-03-22T09:40:00;16.75;;;9.88;;
22711;SDS011;11523;50.390;8.072;2024-03-22T09:42:26;15.07;;;10.30;;
22711;SDS011;11523;50.390;8.072;2024-03-22T09:44:55;15.25;;;9.85;;
22711;SDS011;11523;50.390;8.072;2024-03-22T09:47:21;17.90;;;10.73;;
22711;SDS011;11523;50.390;8.072;2024-03-22T09:49:47;15.82;;;10.13;;
22711;SDS011;11523;50.390;8.072;2024-03-22T09:52:14;18.00;;;11.55;;
22711;SDS011;11523;50.390;8.072;2024-03-22T09:54:42;14.13;;;10.40;;
22711;SDS011;11523;50.390;8.072;2024-03-22T09:57:09;15.57;;;11.85;;
22711;SDS011;11523;50.390;8.072;2024-03-22T09:59:36;16.88;;;12.70;;
22711;SDS011;11523;50.390;8.072;2024-03-22T10:02:02;12.40;;;9.20;;
22711;SDS011;11523;50.390;8.072;2024-03-22T10:04:28;13.93;;;10.88;;
22711;SDS011;11523;50.390;8.072;2024-03-22T10:06:55;17.50;;;12.05;;
22711;SDS011;11523;50.390;8.072;2024-03-22T10:09:28;14.65;;;11.27;;
22711;SDS011;11523;50.390;8.072;2024-03-22T10:11:55;19.27;;;11.48;;
22711;SDS011;11523;50.390;8.072;2024-03-22T10:14:20;16.30;;;12.35;;
22711;SDS011;11523;50.390;8.072;2024-03-22T10:16:46;18.00;;;12.27;;
22711;SDS011;11523;50.390;8.072;2024-03-22T10:19:12;15.45;;;9.25;;
22711;SDS011;11523;50.390;8.072;2024-03-22T10:21:38;16.88;;;12.70;;
22711;SDS011;11523;50.390;8.072;2024-03-22T10:24:04;14.85;;;10.90;;
22711;SDS011;11523;50.390;8.072;2024-03-22T10:26:32;12.38;;;10.93;;
22711;SDS011;11523;50.390;8.072;2024-03-22T10:28:58;15.10;;;10.70;;
22711;SDS011;11523;50.390;8.072;2024-03-22T10:31:31;15.52;;;10.95;;
22711;SDS011;11523;50.390;8.072;2024-03-22T10:33:57;11.80;;;8.23;;
22711;SDS011;11523;50.390;8.072;2024-03-22T10:36:24;13.30;;;10.10;;
22711;SDS011;11523;50.390;8.072;2024-03-22T10:38:57;11.80;;;9.80;;
22711;SDS011;11523;50.390;8.072;2024-03-22T10:41:25;14.98;;;8.15;;
22711;SDS011;11523;50.390;8.072;2024-03-22T10:43:51;10.80;;;7.32;;
22711;SDS011;11523;50.390;8.072;2024-03-22T10:46:17;11.88;;;7.75;;
22711;SDS011;11523;50.390;8.072;2024-03-22T10:48:45;15.50;;;9.13;;
22711;SDS011;11523;50.390;8.072;2024-03-22T10:51:18;13.88;;;9.05;;
22711;SDS011;11523;50.390;8.072;2024-03-22T10:53:44;13.43;;;9.50;;
22711;SDS011;11523;50.390;8.072;2024-03-22T10:56:10;11.63;;;8.27;;
22711;SDS011;11523;50.390;8.072;2024-03-22T10:58:39;13.15;;;7.93;;
22711;SDS011;11523;50.390;8.072;2024-03-22T11:01:05;13.60;;;8.38;;
22711;SDS011;11523;50.390;8.072;2024-03-22T11:03:31;9.02;;;6.40;;
22711;SDS011;11523;50.390;8.072;2024-03-22T11:05:58;10.18;;;7.25;;
22711;SDS011;11523;50.390;8.072;2024-03-22T11:08:28;9.15;;;6.72;;
22711;SDS011;11523;50.390;8.072;2024-03-22T11:10:57;11.77;;;7.88;;
22711;SDS011;11523;50.390;8.072;2024-03-22T11:13:23;12.05;;;8.25;;
22711;SDS011;11523;50.390;8.072;2024-03-22T11:15:49;10.63;;;7.88;;
22711;SDS011;11523;50.390;8.072;2024-03-22T11:18:16;8.90;;;6.68;;
22711;SDS011;11523;50.390;8.072;2024-03-22T11:20:42;12.65;;;7.03;;
22711;SDS011;11523;50.390;8.072;2024-03-22T11:23:09;10.18;;;7.10;;
22711;SDS011;11523;50.390;8.072;2024-03-22T11:25:36;11.57;;;7.35;;
22711;SDS011;11523;50.390;8.072;2024-03-22T11:28:02;11.35;;;8.13;;
22711;SDS011;11523;50.390;8.072;2024-03-22T11:30:28;8.43;;;6.90;;
22711;SDS011;11523;50.390;8.072;2024-03-22T11:32:54;12.45;;;6.82;;
22711;SDS011;11523;50.390;8.072;2024-03-22T11:35:20;11.25;;;7.22;;
22711;SDS011;11523;50.390;8.072;2024-03-22T11:37:48;8.57;;;7.43;;
22711;SDS011;11523;50.390;8.072;2024-03-22T11:40:14;9.60;;;7.55;;
22711;SDS011;11523;50.390;8.072;2024-03-22T11:42:41;10.23;;;7.28;;
22711;SDS011;11523;50.390;8.072;2024-03-22T11:45:10;7.25;;;6.18;;
22711;SDS011;11523;50.390;8.072;2024-03-22T11:47:38;8.18;;;6.40;;
22711;SDS011;11523;50.390;8.072;2024-03-22T11:50:04;10.35;;;6.68;;
22711;SDS011;11523;50.390;8.072;2024-03-22T11:52:30;10.13;;;5.70;;
22711;SDS011;11523;50.390;8.072;2024-03-22T11:54:56;8.45;;;6.22;;
22711;SDS011;11523;50.390;8.072;2024-03-22T11:57:23;8.23;;;5.78;;
22711;SDS011;11523;50.390;8.072;2024-03-22T11:59:50;6.22;;;5.18;;
22711;SDS011;11523;50.390;8.072;2024-03-22T12:02:17;10.95;;;6.18;;
22711;SDS011;11523;50.390;8.072;2024-03-22T12:04:45;9.50;;;6.25;;
22711;SDS011;11523;50.390;8.072;2024-03-22T12:07:15;7.75;;;6.10;;
22711;SDS011;11523;50.390;8.072;2024-03-22T12:09:49;8.48;;;6.18;;
22711;SDS011;11523;50.390;8.072;2024-03-22T12:12:15;6.93;;;5.32;;
22711;SDS011;11523;50.390;8.072;2024-03-22T12:14:41;9.23;;;5.63;;
22711;SDS011;11523;50.390;8.072;2024-03-22T12:17:16;7.60;;;5.90;;
22711;SDS011;11523;50.390;8.072;2024-03-22T12:19:42;9.10;;;5.57;;
22711;SDS011;11523;50.390;8.072;2024-03-22T12:22:08;9.18;;;6.10;;
22711;SDS011;11523;50.390;8.072;2024-03-22T12:24:34;8.40;;;5.82;;
22711;SDS011;11523;50.390;8.072;2024-03-22T12:27:00;10.32;;;6.70;;
22711;SDS011;11523;50.390;8.072;2024-03-22T12:29:26;7.22;;;4.93;;
22711;SDS011;11523;50.390;8.072;2024-03-22T12:31:52;8.32;;;6.35;;
22711;SDS011;11523;50.390;8.072;2024-03-22T12:34:18;8.60;;;6.72;;
22711;SDS011;11523;50.390;8.072;2024-03-22T12:36:44;8.70;;;6.82;;
22711;SDS011;11523;50.390;8.072;2024-03-22T12:39:10;10.68;;;7.28;;
22711;SDS011;11523;50.390;8.072;2024-03-22T12:41:36;10.20;;;7.20;;
22711;SDS011;11523;50.390;8.072;2024-03-22T12:44:02;12.90;;;7.43;;
22711;SDS011;11523;50.390;8.072;2024-03-22T12:46:28;10.15;;;7.95;;
22711;SDS011;11523;50.390;8.072;2024-03-22T12:48:54;8.80;;;7.80;;
22711;SDS011;11523;50.390;8.072;2024-03-22T12:51:20;8.25;;;7.28;;
22711;SDS011;11523;50.390;8.072;2024-03-22T12:53:46;8.57;;;7.45;;
22711;SDS011;11523;50.390;8.072;2024-03-22T12:56:13;12.07;;;8.43;;
22711;SDS011;11523;50.390;8.072;2024-03-22T12:58:38;12.10;;;8.45;;
22711;SDS011;11523;50.390;8.072;2024-03-22T13:01:05;13.65;;;8.68;;
22711;SDS011;11523;50.390;8.072;2024-03-22T13:03:31;11.38;;;8.32;;
22711;SDS011;11523;50.390;8.072;2024-03-22T13:05:57;11.32;;;8.63;;
22711;SDS011;11523;50.390;8.072;2024-03-22T13:08:23;12.00;;;9.43;;
22711;SDS011;11523;50.390;8.072;2024-03-22T13:10:49;12.65;;;9.32;;
22711;SDS011;11523;50.390;8.072;2024-03-22T13:13:17;11.20;;;8.77;;
22711;SDS011;11523;50.390;8.072;2024-03-22T13:15:43;11.05;;;8.23;;
22711;SDS011;11523;50.390;8.072;2024-03-22T13:18:09;13.68;;;9.02;;
22711;SDS011;11523;50.390;8.072;2024-03-22T13:20:35;11.90;;;8.32;;
22711;SDS011;11523;50.390;8.072;2024-03-22T13:23:01;12.00;;;8.52;;
22711;SDS011;11523;50.390;8.072;2024-03-22T13:25:27;12.10;;;8.85;;
22711;SDS011;11523;50.390;8.072;2024-03-22T13:27:53;11.13;;;8.13;;
22711;SDS011;11523;50.390;8.072;2024-03-22T13:30:19;10.30;;;7.38;;
22711;SDS011;11523;50.390;8.072;2024-03-22T13:32:45;9.30;;;7.18;;
22711;SDS011;11523;50.390;8.072;2024-03-22T13:35:11;12.77;;;7.80;;
22711;SDS011;11523;50.390;8.072;2024-03-22T13:37:37;8.55;;;7.47;;
22711;SDS011;11523;50.390;8.072;2024-03-22T13:40:03;8.90;;;6.50;;
22711;SDS011;11523;50.390;8.072;2024-03-22T13:42:29;8.15;;;6.15;;
22711;SDS011;11523;50.390;8.072;2024-03-22T13:44:55;9.35;;;6.72;;
22711;SDS011;11523;50.390;8.072;2024-03-22T13:47:24;9.77;;;6.80;;
22711;SDS011;11523;50.390;8.072;2024-03-22T13:49:51;10.15;;;6.88;;
22711;SDS011;11523;50.390;8.072;2024-03-22T13:52:17;8.63;;;6.15;;
22711;SDS011;11523;50.390;8.072;2024-03-22T13:54:45;9.93;;;6.20;;
22711;SDS011;11523;50.390;8.072;2024-03-22T13:57:11;5.95;;;5.00;;
22711;SDS011;11523;50.390;8.072;2024-03-22T13:59:37;7.00;;;5.30;;
22711;SDS011;11523;50.390;8.072;2024-03-22T14:02:05;9.88;;;5.47;;
22711;SDS011;11523;50.390;8.072;2024-03-22T14:04:31;7.93;;;4.45;;
22711;SDS011;11523;50.390;8.072;2024-03-22T14:06:57;7.82;;;4.03;;
22711;SDS011;11523;50.390;8.072;2024-03-22T14:09:23;5.53;;;3.90;;
22711;SDS011;11523;50.390;8.072;2024-03-22T14:11:51;8.30;;;4.50;;
22711;SDS011;11523;50.390;8.072;2024-03-22T14:14:17;5.40;;;3.42;;
22711;SDS011;11523;50.390;8.072;2024-03-22T14:16:43;6.28;;;4.72;;
22711;SDS011;11523;50.390;8.072;2024-03-22T14:19:09;8.32;;;5.32;;
22711;SDS011;11523;50.390;8.072;2024-03-22T14:21:35;6.28;;;4.45;;